sensor_id;sensor_type;location;lat;lon;timestamp;P1;durP1;ratioP1;P2;durP2;ratioP2
11907;SDS011;6014;47.690;9.130;2022-10-30T00:01:20;14.55;;;6.88;;
11907;SDS011;6014;47.690;9.130;2022-10-30T00:03:49;13.52;;;6.35;;
11907;SDS011;6014;47.690;9.130;2022-10-30T00:06:17;14.25;;;7.45;;
11907;SDS011;6014;47.690;9.130;2022-10-30T00:08:46;13.02;;;7.72;;
11907;SDS011;6014;47.690;9.130;2022-10-30T00:11:14;22.27;;;7.72;;
11907;SDS011;6014;47.690;9.130;2022-10-30T00:13:44;39.92;;;10.23;;
11907;SDS011;6014;47.690;9.130;2022-10-30T00:16:15;23.95;;;9.98;;
11907;SDS011;6014;47.690;9.130;2022-10-30T00:18:43;38.65;;;11.20;;
11907;SDS011;6014;47.690;9.130;2022-10-30T00:21:12;22.05;;;8.48;;
11907;SDS011;6014;47.690;9.130;2022-10-30T00:23:44;24.92;;;8.50;;
11907;SDS011;6014;47.690;9.130;2022-10-30T00:26:13;23.00;;;8.30;;
11907;SDS011;6014;47.690;9.130;2022-10-30T00:28:43;21.17;;;8.05;;
11907;SDS011;6014;47.690;9.130;2022-10-30T00:31:15;17.13;;;7.80;;
11907;SDS011;6014;47.690;9.130;2022-10-30T00:33:47;24.80;;;10.80;;
11907;SDS011;6014;47.690;9.130;2022-10-30T00:36:16;28.58;;;9.38;;
11907;SDS011;6014;47.690;9.130;2022-10-30T00:38:45;27.33;;;9.70;;
11907;SDS011;6014;47.690;9.130;2022-10-30T00:41:13;19.90;;;8.77;;
11907;SDS011;6014;47.690;9.130;2022-10-30T00:43:44;27.02;;;9.85;;
11907;SDS011;6014;47.690;9.130;2022-10-30T00:46:15;22.60;;;9.30;;
11907;SDS011;6014;47.690;9.130;2022-10-30T00:48:48;15.65;;;8.73;;
11907;SDS011;6014;47.690;9.130;2022-10-30T00:51:22;26.30;;;8.35;;
11907;SDS011;6014;47.690;9.130;2022-10-30T00:53:51;18.67;;;8.73;;
11907;SDS011;6014;47.690;9.130;2022-10-30T00:56:20;28.35;;;9.00;;
11907;SDS011;6014;47.690;9.130;2022-10-30T00:58:51;28.00;;;9.90;;
11907;SDS011;6014;47.690;9.130;2022-10-30T01:01:24;55.70;;;16.33;;
11907;SDS011;6014;47.690;9.130;2022-10-30T01:03:55;65.53;;;22.58;;
11907;SDS011;6014;47.690;9.130;2022-10-30T01:06:26;71.97;;;26.80;;
11907;SDS011;6014;47.690;9.130;2022-10-30T01:08:56;58.20;;;23.65;;
11907;SDS011;6014;47.690;9.130;2022-10-30T01:11:25;68.25;;;24.30;;
11907;SDS011;6014;47.690;9.130;2022-10-30T01:13:56;76.28;;;24.17;;
11907;SDS011;6014;47.690;9.130;2022-10-30T01:16:32;65.28;;;22.48;;
11907;SDS011;6014;47.690;9.130;2022-10-30T01:19:24;54.95;;;17.70;;
11907;SDS011;6014;47.690;9.130;2022-10-30T01:22:08;54.08;;;17.05;;
11907;SDS011;6014;47.690;9.130;2022-10-30T01:24:51;62.00;;;21.98;;
11907;SDS011;6014;47.690;9.130;2022-10-30T01:27:34;67.00;;;22.95;;
11907;SDS011;6014;47.690;9.130;2022-10-30T01:30:17;65.18;;;21.55;;
11907;SDS011;6014;47.690;9.130;2022-10-30T01:33:00;59.80;;;22.40;;
11907;SDS011;6014;47.690;9.130;2022-10-30T01:35:43;42.88;;;18.73;;
11907;SDS011;6014;47.690;9.130;2022-10-30T01:38:20;62.83;;;21.77;;
11907;SDS011;6014;47.690;9.130;2022-10-30T01:40:52;61.80;;;20.63;;
11907;SDS011;6014;47.690;9.130;2022-10-30T01:43:21;50.35;;;19.45;;
11907;SDS011;6014;47.690;9.130;2022-10-30T01:45:56;46.72;;;19.20;;
11907;SDS011;6014;47.690;9.130;2022-10-30T01:48:57;62.10;;;24.15;;
11907;SDS011;6014;47.690;9.130;2022-10-30T01:52:02;60.97;;;24.33;;
11907;SDS011;6014;47.690;9.130;2022-10-30T01:54:40;49.05;;;21.20;;
11907;SDS011;6014;47.690;9.130;2022-10-30T01:57:19;38.92;;;17.52;;
11907;SDS011;6014;47.690;9.130;2022-10-30T02:00:01;34.83;;;16.63;;
11907;SDS011;6014;47.690;9.130;2022-10-30T02:02:34;37.05;;;16.65;;
11907;SDS011;6014;47.690;9.130;2022-10-30T02:05:04;41.22;;;16.98;;
11907;SDS011;6014;47.690;9.130;2022-10-30T02:07:34;26.08;;;13.60;;
11907;SDS011;6014;47.690;9.130;2022-10-30T02:10:03;26.90;;;12.57;;
11907;SDS011;6014;47.690;9.130;2022-10-30T02:12:31;24.75;;;11.35;;
11907;SDS011;6014;47.690;9.130;2022-10-30T02:15:00;23.63;;;10.93;;
11907;SDS011;6014;47.690;9.130;2022-10-30T02:17:28;27.00;;;13.35;;
11907;SDS011;6014;47.690;9.130;2022-10-30T02:19:58;33.92;;;15.13;;
11907;SDS011;6014;47.690;9.130;2022-10-30T02:22:28;23.48;;;13.88;;
11907;SDS011;6014;47.690;9.130;2022-10-30T02:24:56;19.05;;;11.32;;
11907;SDS011;6014;47.690;9.130;2022-10-30T02:27:25;21.77;;;11.32;;
11907;SDS011;6014;47.690;9.130;2022-10-30T02:29:53;24.00;;;11.23;;
11907;SDS011;6014;47.690;9.130;2022-10-30T02:32:21;22.25;;;11.80;;
11907;SDS011;6014;47.690;9.130;2022-10-30T02:34:49;23.25;;;10.25;;
11907;SDS011;6014;47.690;9.130;2022-10-30T02:37:17;21.90;;;10.82;;
11907;SDS011;6014;47.690;9.130;2022-10-30T02:39:47;20.42;;;10.60;;
11907;SDS011;6014;47.690;9.130;2022-10-30T02:42:15;22.33;;;10.68;;
11907;SDS011;6014;47.690;9.130;2022-10-30T02:44:43;29.27;;;13.35;;
11907;SDS011;6014;47.690;9.130;2022-10-30T02:47:12;29.23;;;14.43;;
11907;SDS011;6014;47.690;9.130;2022-10-30T02:49:40;29.00;;;14.68;;
11907;SDS011;6014;47.690;9.130;2022-10-30T02:52:08;30.40;;;14.88;;
11907;SDS011;6014;47.690;9.130;2022-10-30T02:54:36;32.25;;;16.40;;
11907;SDS011;6014;47.690;9.130;2022-10-30T02:57:07;34.35;;;15.88;;
11907;SDS011;6014;47.690;9.130;2022-10-30T02:59:36;35.45;;;16.35;;
11907;SDS011;6014;47.690;9.130;2022-10-30T03:02:04;35.63;;;15.93;;
11907;SDS011;6014;47.690;9.130;2022-10-30T03:04:32;28.25;;;12.48;;
11907;SDS011;6014;47.690;9.130;2022-10-30T03:07:01;20.75;;;9.48;;
11907;SDS011;6014;47.690;9.130;2022-10-30T03:09:29;15.38;;;8.13;;
11907;SDS011;6014;47.690;9.130;2022-10-30T03:11:57;16.23;;;8.30;;
11907;SDS011;6014;47.690;9.130;2022-10-30T03:14:27;16.50;;;8.52;;
11907;SDS011;6014;47.690;9.130;2022-10-30T03:16:56;17.92;;;9.30;;
11907;SDS011;6014;47.690;9.130;2022-10-30T03:19:24;19.65;;;9.82;;
11907;SDS011;6014;47.690;9.130;2022-10-30T03:21:52;23.83;;;12.10;;
11907;SDS011;6014;47.690;9.130;2022-10-30T03:24:21;21.27;;;8.95;;
11907;SDS011;6014;47.690;9.130;2022-10-30T03:26:49;18.42;;;9.13;;
11907;SDS011;6014;47.690;9.130;2022-10-30T03:29:17;21.10;;;10.55;;
11907;SDS011;6014;47.690;9.130;2022-10-30T03:31:46;19.40;;;9.90;;
11907;SDS011;6014;47.690;9.130;2022-10-30T03:34:15;22.30;;;10.13;;
11907;SDS011;6014;47.690;9.130;2022-10-30T03:36:43;21.65;;;10.15;;
11907;SDS011;6014;47.690;9.130;2022-10-30T03:39:12;20.05;;;9.32;;
11907;SDS011;6014;47.690;9.130;2022-10-30T03:41:40;22.83;;;10.10;;
11907;SDS011;6014;47.690;9.130;2022-10-30T03:44:09;29.25;;;9.95;;
11907;SDS011;6014;47.690;9.130;2022-10-30T03:46:37;22.58;;;10.32;;
11907;SDS011;6014;47.690;9.130;2022-10-30T03:49:07;20.00;;;9.35;;
11907;SDS011;6014;47.690;9.130;2022-10-30T03:51:35;36.92;;;9.02;;
11907;SDS011;6014;47.690;9.130;2022-10-30T03:54:03;34.63;;;9.27;;
11907;SDS011;6014;47.690;9.130;2022-10-30T03:56:31;12.80;;;6.95;;
11907;SDS011;6014;47.690;9.130;2022-10-30T03:59:00;16.42;;;8.00;;
11907;SDS011;6014;47.690;9.130;2022-10-30T04:01:28;14.40;;;6.18;;
11907;SDS011;6014;47.690;9.130;2022-10-30T04:03:56;29.42;;;6.45;;
11907;SDS011;6014;47.690;9.130;2022-10-30T04:06:26;38.58;;;6.63;;
11907;SDS011;6014;47.690;9.130;2022-10-30T04:08:54;21.55;;;6.13;;
11907;SDS011;6014;47.690;9.130;2022-10-30T04:11:22;16.45;;;6.40;;
11907;SDS011;6014;47.690;9.130;2022-10-30T04:13:51;22.10;;;7.55;;
11907;SDS011;6014;47.690;9.130;2022-10-30T04:16:19;33.75;;;9.82;;
11907;SDS011;6014;47.690;9.130;2022-10-30T04:18:47;27.30;;;6.05;;
11907;SDS011;6014;47.690;9.130;2022-10-30T04:21:15;21.02;;;5.93;;
11907;SDS011;6014;47.690;9.130;2022-10-30T04:23:45;16.77;;;6.00;;
11907;SDS011;6014;47.690;9.130;2022-10-30T04:26:13;11.93;;;5.75;;
11907;SDS011;6014;47.690;9.130;2022-10-30T04:28:41;19.10;;;6.13;;
11907;SDS011;6014;47.690;9.130;2022-10-30T04:31:09;28.00;;;6.65;;
11907;SDS011;6014;47.690;9.130;2022-10-30T04:33:38;9.63;;;5.82;;
11907;SDS011;6014;47.690;9.130;2022-10-30T04:36:06;16.88;;;5.88;;
11907;SDS011;6014;47.690;9.130;2022-10-30T04:38:35;21.77;;;5.63;;
11907;SDS011;6014;47.690;9.130;2022-10-30T04:41:05;18.75;;;6.00;;
11907;SDS011;6014;47.690;9.130;2022-10-30T04:43:33;27.92;;;5.57;;
11907;SDS011;6014;47.690;9.130;2022-10-30T04:46:03;21.52;;;5.97;;
11907;SDS011;6014;47.690;9.130;2022-10-30T04:48:32;16.38;;;5.70;;
11907;SDS011;6014;47.690;9.130;2022-10-30T04:51:01;24.05;;;6.15;;
11907;SDS011;6014;47.690;9.130;2022-10-30T04:53:29;35.10;;;6.78;;
11907;SDS011;6014;47.690;9.130;2022-10-30T04:55:58;25.38;;;6.00;;
11907;SDS011;6014;47.690;9.130;2022-10-30T04:58:27;45.97;;;7.47;;
11907;SDS011;6014;47.690;9.130;2022-10-30T05:00:59;28.15;;;5.78;;
11907;SDS011;6014;47.690;9.130;2022-10-30T05:03:29;22.83;;;6.88;;
11907;SDS011;6014;47.690;9.130;2022-10-30T05:05:58;23.10;;;5.40;;
11907;SDS011;6014;47.690;9.130;2022-10-30T05:08:28;25.15;;;6.47;;
11907;SDS011;6014;47.690;9.130;2022-10-30T05:10:57;32.90;;;5.55;;
11907;SDS011;6014;47.690;9.130;2022-10-30T05:13:25;21.10;;;5.55;;
11907;SDS011;6014;47.690;9.130;2022-10-30T05:15:55;39.20;;;5.75;;
11907;SDS011;6014;47.690;9.130;2022-10-30T05:18:23;35.58;;;6.40;;
11907;SDS011;6014;47.690;9.130;2022-10-30T05:20:51;25.58;;;5.70;;
11907;SDS011;6014;47.690;9.130;2022-10-30T05:23:19;33.90;;;5.80;;
11907;SDS011;6014;47.690;9.130;2022-10-30T05:25:48;17.42;;;5.40;;
11907;SDS011;6014;47.690;9.130;2022-10-30T05:28:16;38.58;;;5.88;;
11907;SDS011;6014;47.690;9.130;2022-10-30T05:30:45;11.65;;;4.40;;
11907;SDS011;6014;47.690;9.130;2022-10-30T05:33:14;38.95;;;5.35;;
11907;SDS011;6014;47.690;9.130;2022-10-30T05:35:43;30.55;;;5.55;;
11907;SDS011;6014;47.690;9.130;2022-10-30T05:38:11;24.20;;;4.57;;
11907;SDS011;6014;47.690;9.130;2022-10-30T05:40:40;56.17;;;5.63;;
11907;SDS011;6014;47.690;9.130;2022-10-30T05:43:08;57.78;;;5.28;;
11907;SDS011;6014;47.690;9.130;2022-10-30T05:45:36;38.28;;;6.10;;
11907;SDS011;6014;47.690;9.130;2022-10-30T05:48:06;11.52;;;3.88;;
11907;SDS011;6014;47.690;9.130;2022-10-30T05:50:34;37.35;;;4.53;;
11907;SDS011;6014;47.690;9.130;2022-10-30T05:53:03;28.40;;;4.95;;
11907;SDS011;6014;47.690;9.130;2022-10-30T05:55:32;57.90;;;5.95;;
11907;SDS011;6014;47.690;9.130;2022-10-30T05:58:01;45.30;;;5.28;;
11907;SDS011;6014;47.690;9.130;2022-10-30T06:00:33;31.80;;;4.53;;
11907;SDS011;6014;47.690;9.130;2022-10-30T06:03:08;52.08;;;5.28;;
11907;SDS011;6014;47.690;9.130;2022-10-30T06:05:38;43.90;;;5.55;;
11907;SDS011;6014;47.690;9.130;2022-10-30T06:08:07;36.58;;;4.45;;
11907;SDS011;6014;47.690;9.130;2022-10-30T06:10:35;20.42;;;4.28;;
11907;SDS011;6014;47.690;9.130;2022-10-30T06:13:05;26.67;;;4.40;;
11907;SDS011;6014;47.690;9.130;2022-10-30T06:15:34;14.98;;;4.40;;
11907;SDS011;6014;47.690;9.130;2022-10-30T06:18:02;23.77;;;4.65;;
11907;SDS011;6014;47.690;9.130;2022-10-30T06:20:32;34.17;;;5.32;;
11907;SDS011;6014;47.690;9.130;2022-10-30T06:23:01;55.38;;;7.00;;
11907;SDS011;6014;47.690;9.130;2022-10-30T06:25:31;33.70;;;4.60;;
11907;SDS011;6014;47.690;9.130;2022-10-30T06:28:06;35.13;;;5.57;;
11907;SDS011;6014;47.690;9.130;2022-10-30T06:30:36;40.15;;;4.72;;
11907;SDS011;6014;47.690;9.130;2022-10-30T06:33:04;30.08;;;4.20;;
11907;SDS011;6014;47.690;9.130;2022-10-30T06:35:34;68.90;;;5.20;;
11907;SDS011;6014;47.690;9.130;2022-10-30T06:38:02;24.00;;;4.20;;
11907;SDS011;6014;47.690;9.130;2022-10-30T06:40:31;17.17;;;3.65;;
11907;SDS011;6014;47.690;9.130;2022-10-30T06:42:59;34.33;;;4.30;;
11907;SDS011;6014;47.690;9.130;2022-10-30T06:45:28;35.92;;;3.78;;
11907;SDS011;6014;47.690;9.130;2022-10-30T06:47:56;45.58;;;5.03;;
11907;SDS011;6014;47.690;9.130;2022-10-30T06:50:27;35.00;;;4.82;;
11907;SDS011;6014;47.690;9.130;2022-10-30T06:52:57;37.78;;;4.55;;
11907;SDS011;6014;47.690;9.130;2022-10-30T06:55:25;40.67;;;4.90;;
11907;SDS011;6014;47.690;9.130;2022-10-30T06:57:53;23.33;;;3.58;;
11907;SDS011;6014;47.690;9.130;2022-10-30T07:00:23;9.20;;;3.50;;
11907;SDS011;6014;47.690;9.130;2022-10-30T07:02:55;27.90;;;3.92;;
11907;SDS011;6014;47.690;9.130;2022-10-30T07:05:26;12.55;;;4.60;;
11907;SDS011;6014;47.690;9.130;2022-10-30T07:07:56;41.08;;;4.30;;
11907;SDS011;6014;47.690;9.130;2022-10-30T07:10:25;25.92;;;3.90;;
11907;SDS011;6014;47.690;9.130;2022-10-30T07:12:53;11.13;;;3.45;;
11907;SDS011;6014;47.690;9.130;2022-10-30T07:15:24;36.25;;;4.35;;
11907;SDS011;6014;47.690;9.130;2022-10-30T07:17:53;20.63;;;3.88;;
11907;SDS011;6014;47.690;9.130;2022-10-30T07:20:24;26.90;;;4.22;;
11907;SDS011;6014;47.690;9.130;2022-10-30T07:22:54;11.60;;;3.20;;
11907;SDS011;6014;47.690;9.130;2022-10-30T07:25:24;11.10;;;4.38;;
11907;SDS011;6014;47.690;9.130;2022-10-30T07:27:53;23.23;;;4.28;;
11907;SDS011;6014;47.690;9.130;2022-10-30T07:30:23;17.20;;;3.70;;
11907;SDS011;6014;47.690;9.130;2022-10-30T07:32:57;78.25;;;7.13;;
11907;SDS011;6014;47.690;9.130;2022-10-30T07:35:28;9.38;;;3.65;;
11907;SDS011;6014;47.690;9.130;2022-10-30T07:38:00;39.97;;;4.80;;
11907;SDS011;6014;47.690;9.130;2022-10-30T07:40:31;10.23;;;3.55;;
11907;SDS011;6014;47.690;9.130;2022-10-30T07:43:00;20.75;;;4.32;;
11907;SDS011;6014;47.690;9.130;2022-10-30T07:45:30;25.23;;;5.90;;
11907;SDS011;6014;47.690;9.130;2022-10-30T07:47:58;25.02;;;4.55;;
11907;SDS011;6014;47.690;9.130;2022-10-30T07:50:27;22.30;;;4.03;;
11907;SDS011;6014;47.690;9.130;2022-10-30T07:52:55;12.73;;;4.93;;
11907;SDS011;6014;47.690;9.130;2022-10-30T07:55:25;16.55;;;4.18;;
11907;SDS011;6014;47.690;9.130;2022-10-30T07:57:54;23.77;;;4.50;;
11907;SDS011;6014;47.690;9.130;2022-10-30T08:00:24;16.35;;;5.18;;
11907;SDS011;6014;47.690;9.130;2022-10-30T08:02:54;25.02;;;4.57;;
11907;SDS011;6014;47.690;9.130;2022-10-30T08:05:24;18.45;;;4.40;;
11907;SDS011;6014;47.690;9.130;2022-10-30T08:07:55;12.23;;;4.13;;
11907;SDS011;6014;47.690;9.130;2022-10-30T08:10:24;24.05;;;4.35;;
11907;SDS011;6014;47.690;9.130;2022-10-30T08:12:52;15.02;;;3.95;;
11907;SDS011;6014;47.690;9.130;2022-10-30T08:15:22;11.38;;;3.85;;
11907;SDS011;6014;47.690;9.130;2022-10-30T08:17:50;15.30;;;4.22;;
11907;SDS011;6014;47.690;9.130;2022-10-30T08:20:20;10.68;;;4.22;;
11907;SDS011;6014;47.690;9.130;2022-10-30T08:22:50;11.88;;;4.13;;
11907;SDS011;6014;47.690;9.130;2022-10-30T08:25:20;9.98;;;4.05;;
11907;SDS011;6014;47.690;9.130;2022-10-30T08:27:52;16.40;;;4.30;;
11907;SDS011;6014;47.690;9.130;2022-10-30T08:30:24;28.73;;;4.78;;
11907;SDS011;6014;47.690;9.130;2022-10-30T08:32:56;8.88;;;3.92;;
11907;SDS011;6014;47.690;9.130;2022-10-30T08:35:26;14.52;;;3.72;;
11907;SDS011;6014;47.690;9.130;2022-10-30T08:37:54;8.30;;;4.15;;
11907;SDS011;6014;47.690;9.130;2022-10-30T08:40:23;19.25;;;4.40;;
11907;SDS011;6014;47.690;9.130;2022-10-30T08:42:53;13.40;;;4.05;;
11907;SDS011;6014;47.690;9.130;2022-10-30T08:45:24;16.73;;;4.30;;
11907;SDS011;6014;47.690;9.130;2022-10-30T08:47:56;13.23;;;4.10;;
11907;SDS011;6014;47.690;9.130;2022-10-30T08:50:26;16.08;;;4.70;;
11907;SDS011;6014;47.690;9.130;2022-10-30T08:52:58;36.90;;;7.03;;
11907;SDS011;6014;47.690;9.130;2022-10-30T08:55:36;28.02;;;5.47;;
11907;SDS011;6014;47.690;9.130;2022-10-30T08:58:06;26.38;;;5.20;;
11907;SDS011;6014;47.690;9.130;2022-10-30T09:00:48;11.38;;;3.97;;
11907;SDS011;6014;47.690;9.130;2022-10-30T09:03:16;7.60;;;4.15;;
11907;SDS011;6014;47.690;9.130;2022-10-30T09:05:44;22.08;;;5.10;;
11907;SDS011;6014;47.690;9.130;2022-10-30T09:08:13;6.55;;;4.03;;
11907;SDS011;6014;47.690;9.130;2022-10-30T09:10:41;20.20;;;4.72;;
11907;SDS011;6014;47.690;9.130;2022-10-30T09:13:11;22.33;;;5.45;;
11907;SDS011;6014;47.690;9.130;2022-10-30T09:15:40;12.50;;;7.50;;
11907;SDS011;6014;47.690;9.130;2022-10-30T09:18:08;31.50;;;17.25;;
11907;SDS011;6014;47.690;9.130;2022-10-30T09:20:36;19.25;;;6.80;;
11907;SDS011;6014;47.690;9.130;2022-10-30T09:23:05;13.45;;;5.28;;
11907;SDS011;6014;47.690;9.130;2022-10-30T09:25:33;10.15;;;5.53;;
11907;SDS011;6014;47.690;9.130;2022-10-30T09:28:01;12.73;;;4.90;;
11907;SDS011;6014;47.690;9.130;2022-10-30T09:30:31;10.13;;;4.88;;
11907;SDS011;6014;47.690;9.130;2022-10-30T09:33:00;18.77;;;5.45;;
11907;SDS011;6014;47.690;9.130;2022-10-30T09:35:29;13.88;;;4.57;;
11907;SDS011;6014;47.690;9.130;2022-10-30T09:37:58;23.80;;;4.90;;
11907;SDS011;6014;47.690;9.130;2022-10-30T09:40:30;24.70;;;5.10;;
11907;SDS011;6014;47.690;9.130;2022-10-30T09:43:13;9.70;;;6.28;;
11907;SDS011;6014;47.690;9.130;2022-10-30T09:51:58;10.00;;;5.15;;
11907;SDS011;6014;47.690;9.130;2022-10-30T09:54:52;12.80;;;5.30;;
11907;SDS011;6014;47.690;9.130;2022-10-30T09:57:41;18.15;;;5.22;;
11907;SDS011;6014;47.690;9.130;2022-10-30T10:00:17;8.70;;;5.43;;
11907;SDS011;6014;47.690;9.130;2022-10-30T10:02:55;14.23;;;6.03;;
11907;SDS011;6014;47.690;9.130;2022-10-30T10:05:40;10.68;;;5.32;;
11907;SDS011;6014;47.690;9.130;2022-10-30T10:08:12;17.95;;;5.45;;
11907;SDS011;6014;47.690;9.130;2022-10-30T10:10:45;9.85;;;5.93;;
11907;SDS011;6014;47.690;9.130;2022-10-30T10:13:28;8.60;;;5.80;;
11907;SDS011;6014;47.690;9.130;2022-10-30T10:16:04;12.05;;;6.07;;
11907;SDS011;6014;47.690;9.130;2022-10-30T10:18:43;10.82;;;5.90;;
11907;SDS011;6014;47.690;9.130;2022-10-30T10:21:21;12.05;;;6.40;;
11907;SDS011;6014;47.690;9.130;2022-10-30T10:23:53;9.75;;;6.75;;
11907;SDS011;6014;47.690;9.130;2022-10-30T10:26:26;13.30;;;6.35;;
11907;SDS011;6014;47.690;9.130;2022-10-30T10:29:01;11.13;;;6.55;;
11907;SDS011;6014;47.690;9.130;2022-10-30T10:31:53;9.50;;;6.53;;
11907;SDS011;6014;47.690;9.130;2022-10-30T10:35:15;12.07;;;6.95;;
11907;SDS011;6014;47.690;9.130;2022-10-30T10:38:10;13.80;;;8.15;;
11907;SDS011;6014;47.690;9.130;2022-10-30T10:40:53;27.17;;;18.73;;
11907;SDS011;6014;47.690;9.130;2022-10-30T10:43:35;12.98;;;8.98;;
11907;SDS011;6014;47.690;9.130;2022-10-30T10:46:29;12.40;;;7.93;;
11907;SDS011;6014;47.690;9.130;2022-10-30T10:49:15;11.55;;;7.55;;
11907;SDS011;6014;47.690;9.130;2022-10-30T10:52:07;12.40;;;8.77;;
11907;SDS011;6014;47.690;9.130;2022-10-30T10:54:41;11.43;;;7.70;;
11907;SDS011;6014;47.690;9.130;2022-10-30T10:57:18;13.10;;;7.93;;
11907;SDS011;6014;47.690;9.130;2022-10-30T10:59:54;13.60;;;7.57;;
11907;SDS011;6014;47.690;9.130;2022-10-30T11:02:30;12.98;;;7.78;;
11907;SDS011;6014;47.690;9.130;2022-10-30T11:05:06;10.45;;;6.88;;
11907;SDS011;6014;47.690;9.130;2022-10-30T11:07:46;10.73;;;7.15;;
11907;SDS011;6014;47.690;9.130;2022-10-30T11:10:18;12.57;;;6.72;;
11907;SDS011;6014;47.690;9.130;2022-10-30T11:12:48;10.98;;;6.97;;
11907;SDS011;6014;47.690;9.130;2022-10-30T11:15:19;9.65;;;6.47;;
11907;SDS011;6014;47.690;9.130;2022-10-30T11:17:57;9.38;;;6.10;;
11907;SDS011;6014;47.690;9.130;2022-10-30T11:20:30;10.00;;;7.03;;
11907;SDS011;6014;47.690;9.130;2022-10-30T11:26:01;10.63;;;6.53;;
11907;SDS011;6014;47.690;9.130;2022-10-30T11:28:33;10.20;;;6.78;;
11907;SDS011;6014;47.690;9.130;2022-10-30T11:31:21;11.32;;;6.82;;
11907;SDS011;6014;47.690;9.130;2022-10-30T11:33:52;14.68;;;7.53;;
11907;SDS011;6014;47.690;9.130;2022-10-30T11:36:22;12.50;;;7.32;;
11907;SDS011;6014;47.690;9.130;2022-10-30T11:38:54;13.80;;;8.35;;
11907;SDS011;6014;47.690;9.130;2022-10-30T11:41:36;14.95;;;7.45;;
11907;SDS011;6014;47.690;9.130;2022-10-30T11:44:05;12.75;;;7.75;;
11907;SDS011;6014;47.690;9.130;2022-10-30T11:46:35;12.23;;;7.93;;
11907;SDS011;6014;47.690;9.130;2022-10-30T11:49:04;12.15;;;7.63;;
11907;SDS011;6014;47.690;9.130;2022-10-30T11:51:34;12.55;;;8.23;;
11907;SDS011;6014;47.690;9.130;2022-10-30T11:54:06;13.57;;;7.80;;
11907;SDS011;6014;47.690;9.130;2022-10-30T11:56:45;16.20;;;9.32;;
11907;SDS011;6014;47.690;9.130;2022-10-30T11:59:17;14.90;;;8.90;;
11907;SDS011;6014;47.690;9.130;2022-10-30T12:01:59;11.82;;;8.23;;
11907;SDS011;6014;47.690;9.130;2022-10-30T12:04:29;15.60;;;9.20;;
11907;SDS011;6014;47.690;9.130;2022-10-30T12:07:07;13.95;;;8.93;;
11907;SDS011;6014;47.690;9.130;2022-10-30T12:09:47;15.57;;;9.02;;
11907;SDS011;6014;47.690;9.130;2022-10-30T12:12:20;15.73;;;8.35;;
11907;SDS011;6014;47.690;9.130;2022-10-30T12:14:50;13.02;;;8.45;;
11907;SDS011;6014;47.690;9.130;2022-10-30T12:17:19;14.00;;;8.18;;
11907;SDS011;6014;47.690;9.130;2022-10-30T12:19:49;14.40;;;8.48;;
11907;SDS011;6014;47.690;9.130;2022-10-30T12:22:23;14.02;;;7.38;;
11907;SDS011;6014;47.690;9.130;2022-10-30T12:24:56;12.85;;;6.63;;
11907;SDS011;6014;47.690;9.130;2022-10-30T12:27:26;15.40;;;7.80;;
11907;SDS011;6014;47.690;9.130;2022-10-30T12:30:04;13.77;;;8.15;;
11907;SDS011;6014;47.690;9.130;2022-10-30T12:32:38;11.18;;;7.15;;
11907;SDS011;6014;47.690;9.130;2022-10-30T12:35:21;14.82;;;7.55;;
11907;SDS011;6014;47.690;9.130;2022-10-30T12:38:04;12.93;;;7.78;;
11907;SDS011;6014;47.690;9.130;2022-10-30T12:40:40;13.65;;;7.15;;
11907;SDS011;6014;47.690;9.130;2022-10-30T12:43:17;10.98;;;7.57;;
11907;SDS011;6014;47.690;9.130;2022-10-30T12:45:50;13.80;;;7.80;;
11907;SDS011;6014;47.690;9.130;2022-10-30T12:48:28;18.90;;;9.63;;
11907;SDS011;6014;47.690;9.130;2022-10-30T12:51:10;16.15;;;8.52;;
11907;SDS011;6014;47.690;9.130;2022-10-30T12:53:50;15.93;;;8.75;;
11907;SDS011;6014;47.690;9.130;2022-10-30T12:56:26;19.92;;;9.00;;
11907;SDS011;6014;47.690;9.130;2022-10-30T12:59:02;16.35;;;8.57;;
11907;SDS011;6014;47.690;9.130;2022-10-30T13:01:48;14.15;;;8.57;;
11907;SDS011;6014;47.690;9.130;2022-10-30T13:04:23;17.50;;;9.43;;
11907;SDS011;6014;47.690;9.130;2022-10-30T13:07:03;18.48;;;10.05;;
11907;SDS011;6014;47.690;9.130;2022-10-30T13:09:41;16.08;;;9.63;;
11907;SDS011;6014;47.690;9.130;2022-10-30T13:12:29;16.23;;;9.75;;
11907;SDS011;6014;47.690;9.130;2022-10-30T13:15:03;16.83;;;10.38;;
11907;SDS011;6014;47.690;9.130;2022-10-30T13:17:36;16.25;;;9.20;;
11907;SDS011;6014;47.690;9.130;2022-10-30T13:20:04;16.33;;;8.95;;
11907;SDS011;6014;47.690;9.130;2022-10-30T13:22:43;17.00;;;10.30;;
11907;SDS011;6014;47.690;9.130;2022-10-30T13:25:18;16.10;;;10.05;;
11907;SDS011;6014;47.690;9.130;2022-10-30T13:27:56;18.85;;;9.45;;
11907;SDS011;6014;47.690;9.130;2022-10-30T13:30:32;18.70;;;9.88;;
11907;SDS011;6014;47.690;9.130;2022-10-30T13:33:08;20.17;;;9.15;;
11907;SDS011;6014;47.690;9.130;2022-10-30T13:35:45;17.45;;;8.80;;
11907;SDS011;6014;47.690;9.130;2022-10-30T13:38:24;22.05;;;9.57;;
11907;SDS011;6014;47.690;9.130;2022-10-30T13:41:10;16.75;;;9.13;;
11907;SDS011;6014;47.690;9.130;2022-10-30T13:43:51;15.07;;;8.70;;
11907;SDS011;6014;47.690;9.130;2022-10-30T13:46:29;16.58;;;9.70;;
11907;SDS011;6014;47.690;9.130;2022-10-30T13:49:18;14.43;;;8.18;;
11907;SDS011;6014;47.690;9.130;2022-10-30T13:52:08;18.02;;;8.60;;
11907;SDS011;6014;47.690;9.130;2022-10-30T13:54:42;12.85;;;7.43;;
11907;SDS011;6014;47.690;9.130;2022-10-30T13:57:16;15.27;;;7.72;;
11907;SDS011;6014;47.690;9.130;2022-10-30T13:59:54;11.20;;;7.60;;
11907;SDS011;6014;47.690;9.130;2022-10-30T14:02:39;14.18;;;7.82;;
11907;SDS011;6014;47.690;9.130;2022-10-30T14:05:25;13.45;;;7.00;;
11907;SDS011;6014;47.690;9.130;2022-10-30T14:08:03;15.00;;;8.70;;
11907;SDS011;6014;47.690;9.130;2022-10-30T14:10:41;15.80;;;7.95;;
11907;SDS011;6014;47.690;9.130;2022-10-30T14:13:16;14.93;;;8.30;;
11907;SDS011;6014;47.690;9.130;2022-10-30T14:15:54;14.70;;;8.05;;
11907;SDS011;6014;47.690;9.130;2022-10-30T14:18:28;15.30;;;8.52;;
11907;SDS011;6014;47.690;9.130;2022-10-30T14:21:29;16.83;;;7.93;;
11907;SDS011;6014;47.690;9.130;2022-10-30T14:24:04;16.58;;;8.40;;
11907;SDS011;6014;47.690;9.130;2022-10-30T14:26:46;19.17;;;8.38;;
11907;SDS011;6014;47.690;9.130;2022-10-30T14:29:29;18.08;;;8.80;;
11907;SDS011;6014;47.690;9.130;2022-10-30T14:32:35;12.95;;;8.35;;
11907;SDS011;6014;47.690;9.130;2022-10-30T14:41:07;11.52;;;7.03;;
11907;SDS011;6014;47.690;9.130;2022-10-30T14:44:04;11.68;;;5.82;;
11907;SDS011;6014;47.690;9.130;2022-10-30T14:47:19;10.85;;;6.97;;
11907;SDS011;6014;47.690;9.130;2022-10-30T14:50:10;10.10;;;7.13;;
11907;SDS011;6014;47.690;9.130;2022-10-30T14:52:53;8.90;;;6.20;;
11907;SDS011;6014;47.690;9.130;2022-10-30T14:55:53;11.63;;;6.72;;
11907;SDS011;6014;47.690;9.130;2022-10-30T14:58:28;10.80;;;6.45;;
11907;SDS011;6014;47.690;9.130;2022-10-30T15:01:17;8.18;;;5.38;;
11907;SDS011;6014;47.690;9.130;2022-10-30T15:03:57;7.97;;;5.80;;
11907;SDS011;6014;47.690;9.130;2022-10-30T15:06:50;10.38;;;6.25;;
11907;SDS011;6014;47.690;9.130;2022-10-30T15:09:39;8.48;;;5.80;;
11907;SDS011;6014;47.690;9.130;2022-10-30T15:12:27;8.57;;;5.18;;
11907;SDS011;6014;47.690;9.130;2022-10-30T15:15:12;8.65;;;5.57;;
11907;SDS011;6014;47.690;9.130;2022-10-30T15:17:44;8.85;;;5.85;;
11907;SDS011;6014;47.690;9.130;2022-10-30T15:20:17;9.70;;;5.55;;
11907;SDS011;6014;47.690;9.130;2022-10-30T15:22:48;9.25;;;5.72;;
11907;SDS011;6014;47.690;9.130;2022-10-30T15:25:21;9.48;;;5.60;;
11907;SDS011;6014;47.690;9.130;2022-10-30T15:27:51;11.65;;;7.60;;
11907;SDS011;6014;47.690;9.130;2022-10-30T15:30:23;9.45;;;6.88;;
11907;SDS011;6014;47.690;9.130;2022-10-30T15:32:53;10.18;;;6.60;;
11907;SDS011;6014;47.690;9.130;2022-10-30T15:35:24;9.02;;;6.45;;
11907;SDS011;6014;47.690;9.130;2022-10-30T15:37:57;9.90;;;6.95;;